sensor_id;sensor_type;location;lat;lon;timestamp;pressure;altitude;pressure_sealevel;temperature;humidity
65054;BME280;51639;47.828;35.038;2022-10-16T00:12:09;101371.94;;;9.65;53.21
65054;BME280;51639;47.828;35.038;2022-10-16T00:27:10;101363.47;;;9.80;52.28
65054;BME280;51639;47.828;35.038;2022-10-16T00:42:17;101372.44;;;9.99;52.05
65054;BME280;51639;47.828;35.038;2022-10-16T00:57:19;101362.72;;;9.83;53.95
65054;BME280;51639;47.828;35.038;2022-10-16T01:27:34;101360.22;;;9.43;55.04
65054;BME280;51639;47.828;35.038;2022-10-16T01:43:03;101376.50;;;9.43;55.31
65054;BME280;51639;47.828;35.038;2022-10-16T01:58:05;101381.38;;;9.16;56.38
65054;BME280;51639;47.828;35.038;2022-10-16T02:13:17;101379.38;;;9.09;56.87
65054;BME280;51639;47.828;35.038;2022-10-16T02:28:31;101378.50;;;8.98;57.86
65054;BME280;51639;47.828;35.038;2022-10-16T02:43:37;101386.13;;;8.82;58.71
65054;BME280;51639;47.828;35.038;2022-10-16T02:58:39;101388.25;;;8.59;59.64
65054;BME280;51639;47.828;35.038;2022-10-16T03:13:41;101404.84;;;8.53;59.89
65054;BME280;51639;47.828;35.038;2022-10-16T03:28:43;101413.69;;;8.50;60.58
65054;BME280;51639;47.828;35.038;2022-10-16T03:43:45;101427.06;;;8.33;61.09
65054;BME280;51639;47.828;35.038;2022-10-16T03:58:47;101426.84;;;8.15;62.17
65054;BME280;51639;47.828;35.038;2022-10-16T04:13:49;101440.25;;;8.08;62.81
65054;BME280;51639;47.828;35.038;2022-10-16T04:28:51;101429.09;;;8.09;62.90
65054;BME280;51639;47.828;35.038;2022-10-16T04:43:53;101430.69;;;8.47;62.08
65054;BME280;51639;47.828;35.038;2022-10-16T04:58:54;101451.44;;;9.17;58.97
65054;BME280;51639;47.828;35.038;2022-10-16T05:13:56;101455.69;;;9.80;57.62
65054;BME280;51639;47.828;35.038;2022-10-16T05:28:58;101485.84;;;11.76;51.25
65054;BME280;51639;47.828;35.038;2022-10-16T05:44:04;101500.63;;;12.73;47.97
65054;BME280;51639;47.828;35.038;2022-10-16T05:59:06;101508.41;;;14.96;43.81
65054;BME280;51639;47.828;35.038;2022-10-16T06:14:14;101519.06;;;16.03;40.07
65054;BME280;51639;47.828;35.038;2022-10-16T06:29:16;101527.00;;;16.74;37.86
65054;BME280;51639;47.828;35.038;2022-10-16T06:44:19;101526.03;;;18.06;35.99
65054;BME280;51639;47.828;35.038;2022-10-16T06:59:21;101520.44;;;18.77;36.05
65054;BME280;51639;47.828;35.038;2022-10-16T07:14:23;101533.25;;;19.31;35.41
65054;BME280;51639;47.828;35.038;2022-10-16T07:29:25;101531.06;;;19.73;34.72
65054;BME280;51639;47.828;35.038;2022-10-16T07:44:27;101545.38;;;20.55;34.25
65054;BME280;51639;47.828;35.038;2022-10-16T07:59:29;101538.84;;;21.02;33.03
65054;BME280;51639;47.828;35.038;2022-10-16T08:14:31;101536.00;;;21.51;32.21
65054;BME280;51639;47.828;35.038;2022-10-16T08:29:38;101546.91;;;21.55;31.81
65054;BME280;51639;47.828;35.038;2022-10-16T08:44:47;101551.81;;;22.24;31.11
65054;BME280;51639;47.828;35.038;2022-10-16T08:59:55;101537.72;;;22.13;30.53
65054;BME280;51639;47.828;35.038;2022-10-16T09:30:18;101514.16;;;23.88;29.11
65054;BME280;51639;47.828;35.038;2022-10-16T09:45:23;101510.47;;;24.05;28.14
65054;BME280;51639;47.828;35.038;2022-10-16T10:00:25;101489.16;;;24.61;27.87
65054;BME280;51639;47.828;35.038;2022-10-16T10:15:33;101496.28;;;24.82;27.71
65054;BME280;51639;47.828;35.038;2022-10-16T10:30:56;101497.31;;;24.85;27.51
65054;BME280;51639;47.828;35.038;2022-10-16T10:46:05;101488.88;;;24.94;27.48
65054;BME280;51639;47.828;35.038;2022-10-16T11:01:14;101473.31;;;24.47;27.93
65054;BME280;51639;47.828;35.038;2022-10-16T11:16:22;101466.63;;;23.95;28.88
65054;BME280;51639;47.828;35.038;2022-10-16T11:31:47;101466.41;;;25.12;27.61
65054;BME280;51639;47.828;35.038;2022-10-16T12:17:50;101485.34;;;21.27;33.65
65054;BME280;51639;47.828;35.038;2022-10-16T12:32:54;101491.50;;;19.67;35.53
65054;BME280;51639;47.828;35.038;2022-10-16T12:47:57;101495.22;;;19.38;38.16
65054;BME280;51639;47.828;35.038;2022-10-16T13:03:39;101497.41;;;18.96;39.28
65054;BME280;51639;47.828;35.038;2022-10-16T13:19:06;101490.38;;;18.83;39.63
65054;BME280;51639;47.828;35.038;2022-10-16T13:34:16;101493.56;;;18.68;41.09
65054;BME280;51639;47.828;35.038;2022-10-16T13:49:19;101488.38;;;18.45;40.79
65054;BME280;51639;47.828;35.038;2022-10-16T14:04:22;101506.59;;;18.26;41.79
65054;BME280;51639;47.828;35.038;2022-10-16T14:19:27;101509.34;;;18.14;42.00
65054;BME280;51639;47.828;35.038;2022-10-16T14:34:31;101523.34;;;17.90;42.58
65054;BME280;51639;47.828;35.038;2022-10-16T14:49:34;101533.88;;;17.47;42.89
65054;BME280;51639;47.828;35.038;2022-10-16T15:04:36;101563.28;;;17.30;43.44
65054;BME280;51639;47.828;35.038;2022-10-16T15:19:38;101574.34;;;16.94;45.05
65054;BME280;51639;47.828;35.038;2022-10-16T15:34:40;101605.47;;;16.67;45.07
65054;BME280;51639;47.828;35.038;2022-10-16T15:49:42;101621.28;;;16.40;45.09
65054;BME280;51639;47.828;35.038;2022-10-16T16:04:44;101634.78;;;16.08;45.64
65054;BME280;51639;47.828;35.038;2022-10-16T16:19:49;101668.69;;;15.94;45.97
65054;BME280;51639;47.828;35.038;2022-10-16T16:34:53;101665.63;;;15.65;46.46
65054;BME280;51639;47.828;35.038;2022-10-16T16:49:55;101676.00;;;15.50;46.45
65054;BME280;51639;47.828;35.038;2022-10-16T17:04:57;101686.25;;;15.16;46.88
65054;BME280;51639;47.828;35.038;2022-10-16T17:19:59;101684.50;;;15.02;46.54
65054;BME280;51639;47.828;35.038;2022-10-16T17:35:03;101685.94;;;14.80;47.01
65054;BME280;51639;47.828;35.038;2022-10-16T17:50:05;101689.53;;;14.36;46.63
65054;BME280;51639;47.828;35.038;2022-10-16T18:05:09;101677.66;;;14.12;47.08
65054;BME280;51639;47.828;35.038;2022-10-16T18:20:12;101679.19;;;13.68;48.23
65054;BME280;51639;47.828;35.038;2022-10-16T18:35:16;101702.78;;;13.34;47.98
65054;BME280;51639;47.828;35.038;2022-10-16T18:50:21;101711.00;;;13.26;48.70
65054;BME280;51639;47.828;35.038;2022-10-16T19:05:27;101729.75;;;13.10;49.69
65054;BME280;51639;47.828;35.038;2022-10-16T19:20:29;101738.75;;;13.00;50.71
65054;BME280;51639;47.828;35.038;2022-10-16T19:35:32;101770.72;;;12.96;49.25
65054;BME280;51639;47.828;35.038;2022-10-16T19:50:34;101788.63;;;12.76;50.19
65054;BME280;51639;47.828;35.038;2022-10-16T20:05:36;101791.00;;;12.63;50.23
65054;BME280;51639;47.828;35.038;2022-10-16T20:20:40;101787.16;;;12.50;49.83
65054;BME280;51639;47.828;35.038;2022-10-16T20:35:47;101790.25;;;12.30;50.34
65054;BME280;51639;47.828;35.038;2022-10-16T20:50:50;101810.47;;;12.33;50.43
65054;BME280;51639;47.828;35.038;2022-10-16T21:05:51;101807.78;;;12.26;50.26
65054;BME280;51639;47.828;35.038;2022-10-16T21:20:59;101824.47;;;12.14;50.50
65054;BME280;51639;47.828;35.038;2022-10-16T21:36:01;101838.06;;;12.00;50.94
65054;BME280;51639;47.828;35.038;2022-10-16T21:51:12;101836.06;;;11.82;52.11
65054;BME280;51639;47.828;35.038;2022-10-16T22:06:16;101800.66;;;11.72;51.74
65054;BME280;51639;47.828;35.038;2022-10-16T22:21:19;101798.66;;;11.58;52.22
65054;BME280;51639;47.828;35.038;2022-10-16T22:36:21;101806.41;;;11.49;52.24
65054;BME280;51639;47.828;35.038;2022-10-16T22:51:25;101807.13;;;11.39;52.70
65054;BME280;51639;47.828;35.038;2022-10-16T23:06:27;101825.34;;;11.27;53.92
65054;BME280;51639;47.828;35.038;2022-10-16T23:21:29;101841.22;;;11.22;54.95
65054;BME280;51639;47.828;35.038;2022-10-16T23:36:31;101837.97;;;10.95;55.04
65054;BME280;51639;47.828;35.038;2022-10-16T23:51:33;101836.81;;;10.96;54.45
